createdAt,value
2023-05-02T00:00:40.919Z,5.82
2023-05-02T00:03:08.562Z,5.25
2023-05-02T00:05:35.585Z,6.10
2023-05-02T00:08:02.333Z,6.30
2023-05-02T00:10:29.222Z,6.60
2023-05-02T00:12:56.078Z,6.43
2023-05-02T00:15:23.009Z,6.50
2023-05-02T00:17:49.811Z,6.50
2023-05-02T00:20:16.777Z,6.45
2023-05-02T00:22:43.455Z,5.90
2023-05-02T00:25:10.430Z,6.15
2023-05-02T00:27:37.452Z,6.50
2023-05-02T00:30:04.490Z,6.85
2023-05-02T00:32:31.273Z,6.60
2023-05-02T00:34:57.969Z,6.50
2023-05-02T00:37:27.778Z,6.93
2023-05-02T00:39:54.964Z,6.95
2023-05-02T00:42:21.733Z,6.13
2023-05-02T00:44:48.636Z,6.40
2023-05-02T00:47:16.223Z,6.95
2023-05-02T00:49:42.917Z,6.55
2023-05-02T00:52:09.933Z,6.63
2023-05-02T00:54:39.682Z,6.80
2023-05-02T00:57:07.134Z,6.60
2023-05-02T00:59:35.428Z,6.60
2023-05-02T01:02:44.383Z,6.25
2023-05-02T01:05:22.256Z,6.70
2023-05-02T01:08:09.334Z,6.05
2023-05-02T01:11:15.317Z,5.95
2023-05-02T01:13:44.727Z,5.57
2023-05-02T01:16:12.648Z,6.18
2023-05-02T01:18:41.528Z,6.20
2023-05-02T01:21:10.138Z,5.78
2023-05-02T01:24:13.297Z,6.03
2023-05-02T01:26:48.581Z,6.10
2023-05-02T01:29:16.181Z,5.50
2023-05-02T01:31:43.947Z,6.15
2023-05-02T01:34:11.297Z,6.07
2023-05-02T01:36:45.790Z,6.30
2023-05-02T01:39:17.075Z,6.25
2023-05-02T01:41:44.116Z,6.82
2023-05-02T01:44:11.598Z,6.47
2023-05-02T01:46:40.611Z,6.75
2023-05-02T01:49:08.310Z,6.25
2023-05-02T01:51:37.619Z,6.53
2023-05-02T01:54:06.118Z,6.90
2023-05-02T01:56:38.006Z,6.70
2023-05-02T01:59:07.078Z,6.60
2023-05-02T02:01:38.615Z,6.82
2023-05-02T02:04:07.039Z,7.68
2023-05-02T02:06:34.210Z,7.53
2023-05-02T02:09:01.312Z,7.25
2023-05-02T02:11:37.218Z,7.32
2023-05-02T02:14:07.696Z,7.40
2023-05-02T02:16:37.888Z,7.95
2023-05-02T02:19:08.737Z,8.48
2023-05-02T02:21:36.842Z,7.57
2023-05-02T02:24:05.872Z,7.68
2023-05-02T02:26:32.686Z,7.07
2023-05-02T02:29:00.710Z,6.88
2023-05-02T02:31:32.199Z,7.50
2023-05-02T02:33:59.518Z,7.25
2023-05-02T02:36:56.021Z,7.38
2023-05-02T02:40:04.395Z,7.53
2023-05-02T02:42:45.429Z,7.22
2023-05-02T02:45:20.005Z,7.05
2023-05-02T02:47:58.939Z,6.30
2023-05-02T02:50:34.983Z,6.80
2023-05-02T02:53:18.488Z,6.90
2023-05-02T02:55:53.893Z,6.50
2023-05-02T02:58:30.035Z,6.65
2023-05-02T03:00:57.477Z,6.28
2023-05-02T03:03:29.394Z,6.63
2023-05-02T03:05:57.084Z,6.78
2023-05-02T03:08:24.467Z,6.13
2023-05-02T03:10:51.683Z,7.18
2023-05-02T03:13:18.392Z,6.82
2023-05-02T03:16:13.108Z,6.65
2023-05-02T03:18:40.783Z,6.38
2023-05-02T03:21:07.513Z,6.50
2023-05-02T03:23:34.228Z,7.15
2023-05-02T03:26:01.049Z,7.65
2023-05-02T03:28:27.734Z,7.68
2023-05-02T03:30:54.434Z,6.90
2023-05-02T03:33:21.128Z,7.00
2023-05-02T03:35:47.851Z,6.10
2023-05-02T03:38:14.622Z,6.72
2023-05-02T03:40:41.289Z,7.40
2023-05-02T03:43:08.021Z,6.80
2023-05-02T03:45:34.958Z,6.80
2023-05-02T03:48:01.732Z,6.50
2023-05-02T03:50:28.722Z,5.90
2023-05-02T03:52:55.470Z,6.00
2023-05-02T03:55:22.247Z,6.03
2023-05-02T03:57:48.963Z,5.55
2023-05-02T04:00:16.179Z,6.15
2023-05-02T04:02:43.035Z,5.50
2023-05-02T04:05:09.929Z,5.80
2023-05-02T04:07:36.661Z,5.80
2023-05-02T04:10:03.738Z,6.25
2023-05-02T04:12:31.040Z,6.43
2023-05-02T04:14:57.877Z,7.05
2023-05-02T04:17:24.587Z,6.82
2023-05-02T04:19:52.127Z,7.63
2023-05-02T04:22:18.879Z,7.38
2023-05-02T04:24:45.672Z,7.18
2023-05-02T04:27:14.424Z,6.82
2023-05-02T04:29:41.897Z,7.75
2023-05-02T04:32:08.624Z,8.40
2023-05-02T04:34:35.334Z,7.93
2023-05-02T04:37:02.108Z,8.20
2023-05-02T04:39:28.799Z,6.97
2023-05-02T04:41:55.670Z,7.10
2023-05-02T04:44:22.388Z,6.97
2023-05-02T04:46:49.121Z,6.82
2023-05-02T04:49:15.920Z,7.07
2023-05-02T04:51:42.628Z,6.82
2023-05-02T04:54:09.371Z,7.22
2023-05-02T04:56:36.114Z,7.65
2023-05-02T04:59:02.764Z,7.55
2023-05-02T05:01:29.566Z,7.85
2023-05-02T05:03:56.722Z,8.20
2023-05-02T05:06:24.643Z,8.05
2023-05-02T05:08:51.419Z,8.25
2023-05-02T05:11:18.227Z,7.65
2023-05-02T05:13:44.940Z,8.10
2023-05-02T05:16:12.318Z,8.07
2023-05-02T05:18:42.234Z,7.18
2023-05-02T05:21:09.753Z,7.93
2023-05-02T05:23:37.574Z,7.68
2023-05-02T05:26:15.855Z,8.00
2023-05-02T05:28:43.108Z,7.60
2023-05-02T05:31:16.589Z,7.65
2023-05-02T05:33:44.327Z,7.85
2023-05-02T05:36:13.177Z,7.95
2023-05-02T05:38:39.960Z,7.90
2023-05-02T05:41:08.357Z,8.40
2023-05-02T05:43:37.801Z,8.25
2023-05-02T05:46:05.171Z,8.20
2023-05-02T05:48:32.180Z,8.82
2023-05-02T05:50:58.880Z,9.85
2023-05-02T05:53:25.982Z,9.40
2023-05-02T05:55:52.672Z,9.73
2023-05-02T05:58:19.468Z,9.57
2023-05-02T06:00:46.217Z,9.98
2023-05-02T06:03:13.141Z,10.13
2023-05-02T06:05:39.890Z,10.20
2023-05-02T06:08:06.764Z,9.90
2023-05-02T06:10:33.585Z,9.80
2023-05-02T06:13:00.442Z,10.20
2023-05-02T06:15:27.117Z,17.13
2023-05-02T06:17:53.916Z,10.88
2023-05-02T06:20:20.887Z,12.10
2023-05-02T06:22:47.623Z,10.32
2023-05-02T06:25:14.569Z,10.40
2023-05-02T06:27:41.236Z,9.80
2023-05-02T06:30:08.637Z,10.07
2023-05-02T06:32:35.352Z,10.20
2023-05-02T06:35:02.334Z,9.40
2023-05-02T06:37:34.946Z,10.15
2023-05-02T06:40:02.512Z,10.38
2023-05-02T06:42:29.824Z,9.98
2023-05-02T06:44:56.876Z,10.15
2023-05-02T06:47:24.947Z,10.02
2023-05-02T06:49:53.182Z,10.02
2023-05-02T06:52:20.293Z,10.88
2023-05-02T06:54:50.468Z,11.10
2023-05-02T06:57:17.187Z,10.73
2023-05-02T06:59:44.122Z,10.80
2023-05-02T07:02:11.541Z,11.25
2023-05-02T07:04:38.448Z,12.65
2023-05-02T07:07:05.398Z,12.60
2023-05-02T07:09:32.217Z,15.60
2023-05-02T07:11:58.965Z,15.95
2023-05-02T07:14:25.647Z,17.17
2023-05-02T07:16:52.432Z,16.80
2023-05-02T07:19:19.864Z,17.08
2023-05-02T07:21:46.651Z,17.38
2023-05-02T07:24:13.414Z,17.10
2023-05-02T07:26:40.216Z,17.20
2023-05-02T07:29:07.134Z,16.80
2023-05-02T07:31:34.207Z,16.40
2023-05-02T07:34:00.948Z,16.92
2023-05-02T07:36:28.572Z,17.05
2023-05-02T07:38:55.752Z,18.17
2023-05-02T07:41:22.445Z,17.80
2023-05-02T07:43:49.146Z,17.05
2023-05-02T07:46:16.005Z,17.27
2023-05-02T07:48:43.183Z,16.75
2023-05-02T07:51:11.108Z,17.27
2023-05-02T07:53:37.938Z,17.02
2023-05-02T07:56:07.416Z,17.05
2023-05-02T07:58:38.554Z,16.70
2023-05-02T08:01:05.430Z,17.00
2023-05-02T08:03:32.424Z,16.02
2023-05-02T08:05:59.284Z,15.95
2023-05-02T08:08:26.164Z,16.17
2023-05-02T08:10:52.890Z,16.13
2023-05-02T08:13:19.820Z,16.70
2023-05-02T08:15:46.632Z,16.65
2023-05-02T08:18:13.527Z,15.45
2023-05-02T08:20:40.261Z,15.25
2023-05-02T08:23:07.011Z,14.40
2023-05-02T08:25:33.795Z,15.70
2023-05-02T08:28:00.728Z,13.95
2023-05-02T08:30:27.569Z,14.57
2023-05-02T08:32:54.303Z,13.50
2023-05-02T08:35:21.360Z,12.23
2023-05-02T08:37:48.102Z,12.02
2023-05-02T08:40:15.441Z,11.38
2023-05-02T08:42:44.987Z,11.68
2023-05-02T08:45:14.216Z,11.90
2023-05-02T08:47:43.183Z,11.75
2023-05-02T08:50:12.119Z,11.82
2023-05-02T08:52:39.231Z,13.02
2023-05-02T08:55:07.894Z,12.07
2023-05-02T08:57:34.654Z,11.13
2023-05-02T09:00:02.231Z,10.10
2023-05-02T09:02:48.509Z,7.38
2023-05-02T09:05:20.420Z,6.30
2023-05-02T09:07:48.978Z,6.28
2023-05-02T09:10:16.460Z,8.10
2023-05-02T09:12:43.634Z,8.85
2023-05-02T09:15:14.845Z,9.07
2023-05-02T09:17:48.989Z,8.93
2023-05-02T09:22:51.097Z,7.95
2023-05-02T09:25:18.470Z,8.27
2023-05-02T09:27:56.207Z,7.03
2023-05-02T09:30:26.814Z,6.68
2023-05-02T09:32:56.222Z,6.35
2023-05-02T09:35:24.223Z,6.95
2023-05-02T09:37:53.778Z,6.25
2023-05-02T09:40:20.869Z,6.18
2023-05-02T09:42:48.150Z,5.38
2023-05-02T09:45:22.521Z,5.18
2023-05-02T09:50:37.343Z,4.47
2023-05-02T09:53:06.187Z,4.93
2023-05-02T09:55:33.010Z,5.05
2023-05-02T09:58:00.252Z,4.75
2023-05-02T10:00:46.206Z,4.95
2023-05-02T10:03:16.846Z,5.90
2023-05-02T10:05:45.262Z,5.57
2023-05-02T10:08:13.009Z,5.57
2023-05-02T10:10:41.618Z,5.50
2023-05-02T10:13:09.162Z,4.82
2023-05-02T10:15:38.261Z,5.07
2023-05-02T10:18:13.513Z,4.53
2023-05-02T10:20:45.032Z,4.15
2023-05-02T10:23:12.408Z,4.00
2023-05-02T10:25:39.772Z,3.67
2023-05-02T10:28:06.803Z,3.13
2023-05-02T10:30:34.338Z,3.17
2023-05-02T10:33:01.859Z,2.47
2023-05-02T10:35:28.948Z,2.17
2023-05-02T10:37:56.291Z,2.15
2023-05-02T10:40:23.365Z,1.80
2023-05-02T10:42:51.843Z,1.80
2023-05-02T10:45:35.667Z,1.95
2023-05-02T10:48:27.931Z,2.30
2023-05-02T10:51:01.556Z,2.67
2023-05-02T10:53:37.252Z,2.05
2023-05-02T10:56:25.873Z,2.28
2023-05-02T10:58:53.956Z,2.00
2023-05-02T11:01:34.556Z,2.25
2023-05-02T11:04:07.763Z,1.80
2023-05-02T11:06:36.420Z,1.58
2023-05-02T11:09:38.794Z,2.00
2023-05-02T11:12:05.760Z,1.80
2023-05-02T11:14:45.198Z,1.75
2023-05-02T11:17:11.991Z,1.60
2023-05-02T11:19:58.955Z,1.70
2023-05-02T11:22:34.841Z,1.20
2023-05-02T11:25:02.163Z,1.20
2023-05-02T11:27:49.474Z,1.33
2023-05-02T11:30:44.204Z,1.27
2023-05-02T11:33:12.328Z,1.60
2023-05-02T11:35:42.396Z,1.48
2023-05-02T11:38:13.585Z,1.48
2023-05-02T11:40:40.625Z,1.30
2023-05-02T11:43:18.642Z,1.40
2023-05-02T11:45:45.826Z,1.08
2023-05-02T11:48:14.003Z,1.35
2023-05-02T11:50:51.593Z,1.50
2023-05-02T11:53:22.648Z,1.48
2023-05-02T11:55:57.674Z,2.00
2023-05-02T11:58:34.151Z,1.05
2023-05-02T12:01:15.098Z,1.13
2023-05-02T12:03:42.344Z,1.35
2023-05-02T12:06:12.263Z,1.17
2023-05-02T12:08:40.687Z,1.10
2023-05-02T12:11:09.501Z,1.15
2023-05-02T12:13:45.287Z,1.30
2023-05-02T12:16:12.052Z,1.33
2023-05-02T12:18:38.848Z,1.30
2023-05-02T12:21:06.036Z,1.58
2023-05-02T12:23:34.003Z,1.70
2023-05-02T12:26:25.896Z,1.50
2023-05-02T12:28:54.997Z,1.70
2023-05-02T12:31:22.159Z,1.60
2023-05-02T12:33:50.525Z,1.75
2023-05-02T12:36:18.082Z,2.15
2023-05-02T12:38:49.586Z,2.10
2023-05-02T12:41:16.417Z,2.50
2023-05-02T12:43:48.265Z,2.00
2023-05-02T12:46:15.104Z,2.42
2023-05-02T12:48:42.051Z,2.38
2023-05-02T12:51:21.489Z,2.50
2023-05-02T12:53:48.273Z,2.42
2023-05-02T12:56:15.159Z,2.40
2023-05-02T12:58:48.405Z,2.60
2023-05-02T13:01:15.742Z,2.53
2023-05-02T13:03:43.608Z,2.90
2023-05-02T13:06:10.738Z,2.88
2023-05-02T13:08:37.536Z,2.90
2023-05-02T13:11:04.717Z,2.95
2023-05-02T13:13:32.890Z,3.20
2023-05-02T13:15:59.871Z,3.30
2023-05-02T13:18:28.418Z,3.22
2023-05-02T13:20:55.381Z,3.20
2023-05-02T13:23:22.387Z,3.58
2023-05-02T13:25:49.269Z,3.53
2023-05-02T13:28:16.094Z,3.53
2023-05-02T13:30:42.895Z,3.53
2023-05-02T13:33:09.732Z,3.58
2023-05-02T13:35:36.626Z,4.10
2023-05-02T13:38:04.172Z,3.45
2023-05-02T13:40:30.961Z,3.70
2023-05-02T13:42:57.900Z,3.53
2023-05-02T13:45:24.994Z,3.42
2023-05-02T13:47:51.785Z,3.38
2023-05-02T13:50:18.512Z,3.47
2023-05-02T13:52:47.688Z,3.67
2023-05-02T13:55:15.796Z,3.42
2023-05-02T13:57:42.562Z,4.05
2023-05-02T14:00:10.500Z,3.75
2023-05-02T14:02:37.891Z,3.90
2023-05-02T14:05:05.134Z,3.83
2023-05-02T14:07:32.028Z,3.90
2023-05-02T14:09:58.744Z,4.15
2023-05-02T14:12:26.123Z,4.93
2023-05-02T14:14:52.934Z,4.47
2023-05-02T14:17:19.837Z,4.25
2023-05-02T14:19:47.047Z,4.20
2023-05-02T14:22:13.833Z,4.35
2023-05-02T14:24:40.741Z,4.63
2023-05-02T14:27:09.530Z,4.60
2023-05-02T14:29:36.279Z,5.00
2023-05-02T14:32:03.025Z,4.47
2023-05-02T14:34:29.904Z,4.28
2023-05-02T14:36:56.690Z,4.35
2023-05-02T14:39:23.496Z,4.38
2023-05-02T14:41:50.325Z,4.53
2023-05-02T14:44:18.525Z,5.63
2023-05-02T14:46:45.345Z,4.78
2023-05-02T14:49:12.102Z,5.60
2023-05-02T14:51:39.715Z,5.22
2023-05-02T14:54:07.456Z,6.32
2023-05-02T14:56:34.233Z,5.78
2023-05-02T14:59:01.036Z,5.72
2023-05-02T15:01:27.871Z,5.50
2023-05-02T15:04:06.642Z,6.28
2023-05-02T15:06:35.425Z,7.18
2023-05-02T15:09:02.551Z,7.93
2023-05-02T15:11:29.222Z,6.38
2023-05-02T15:13:58.438Z,6.82
2023-05-02T15:16:27.382Z,5.80
2023-05-02T15:18:54.538Z,5.45
2023-05-02T15:21:21.539Z,5.15
2023-05-02T15:23:48.245Z,5.35
2023-05-02T15:26:15.374Z,5.72
2023-05-02T15:28:42.110Z,5.70
2023-05-02T15:31:08.943Z,5.32
2023-05-02T15:33:35.788Z,4.90
2023-05-02T15:36:02.734Z,4.88
2023-05-02T15:38:29.565Z,4.78
2023-05-02T15:41:00.585Z,5.38
2023-05-02T15:43:27.722Z,4.47
2023-05-02T15:45:56.037Z,5.15
2023-05-02T15:48:23.397Z,4.75
2023-05-02T15:50:50.155Z,5.13
2023-05-02T15:53:17.456Z,6.70
2023-05-02T15:55:46.114Z,9.35
2023-05-02T15:58:13.557Z,6.13
2023-05-02T16:00:40.605Z,5.20
2023-05-02T16:03:12.356Z,4.82
2023-05-02T16:05:39.322Z,5.10
2023-05-02T16:08:06.345Z,5.65
2023-05-02T16:10:33.361Z,4.78
2023-05-02T16:13:00.087Z,5.60
2023-05-02T16:15:26.896Z,5.55
2023-05-02T16:17:53.770Z,5.43
2023-05-02T16:20:20.701Z,6.82
2023-05-02T16:22:48.738Z,12.52
2023-05-02T16:25:17.178Z,6.30
2023-05-02T16:27:43.927Z,5.90
2023-05-02T16:30:11.314Z,7.60
2023-05-02T16:32:38.179Z,14.23
2023-05-02T16:35:07.617Z,6.32
2023-05-02T16:37:35.447Z,5.38
2023-05-02T16:40:03.214Z,4.88
2023-05-02T16:42:30.604Z,4.85
2023-05-02T16:44:57.740Z,4.68
2023-05-02T16:47:24.641Z,4.57
2023-05-02T16:49:56.075Z,4.60
2023-05-02T16:52:23.028Z,4.50
2023-05-02T16:54:49.985Z,4.50
2023-05-02T16:57:23.500Z,4.50
2023-05-02T16:59:52.350Z,4.17
2023-05-02T17:02:21.169Z,4.47
2023-05-02T17:04:48.916Z,3.67
2023-05-02T17:07:15.896Z,3.90
2023-05-02T17:09:43.019Z,5.35
2023-05-02T17:12:13.514Z,4.00
2023-05-02T17:14:42.571Z,4.10
2023-05-02T17:17:10.203Z,4.20
2023-05-02T17:19:37.150Z,4.88
2023-05-02T17:22:05.442Z,3.97
2023-05-02T17:24:32.821Z,4.40
2023-05-02T17:26:59.703Z,4.22
2023-05-02T17:29:26.661Z,3.95
2023-05-02T17:31:53.568Z,3.80
2023-05-02T17:34:25.935Z,4.15
2023-05-02T17:36:52.796Z,3.50
2023-05-02T17:39:19.674Z,3.50
2023-05-02T17:41:46.560Z,4.88
2023-05-02T17:44:13.341Z,4.10
2023-05-02T17:46:40.192Z,3.70
2023-05-02T17:49:07.021Z,3.58
2023-05-02T17:51:34.064Z,4.28
2023-05-02T17:54:01.213Z,3.83
2023-05-02T17:56:28.666Z,4.22
2023-05-02T17:58:56.470Z,6.63
2023-05-02T18:01:23.230Z,4.47
2023-05-02T18:03:50.236Z,3.83
2023-05-02T18:06:18.471Z,4.18
2023-05-02T18:08:45.656Z,3.92
2023-05-02T18:11:19.950Z,3.80
2023-05-02T18:16:14.369Z,3.38
2023-05-02T18:18:41.616Z,3.80
2023-05-02T18:21:09.881Z,3.33
2023-05-02T18:23:36.665Z,3.30
2023-05-02T18:26:03.934Z,3.55
2023-05-02T18:28:30.673Z,3.70
2023-05-02T18:30:57.579Z,2.97
2023-05-02T18:33:24.418Z,3.17
2023-05-02T18:35:51.172Z,3.10
2023-05-02T18:38:18.494Z,4.63
2023-05-02T18:40:45.456Z,3.33
2023-05-02T18:43:12.211Z,3.53
2023-05-02T18:45:39.237Z,3.08
2023-05-02T18:48:06.462Z,3.20
2023-05-02T18:50:33.292Z,3.05
2023-05-02T18:53:00.158Z,2.88
2023-05-02T18:55:26.875Z,3.45
2023-05-02T18:57:53.613Z,3.25
2023-05-02T19:00:20.625Z,3.38
2023-05-02T19:02:48.106Z,3.25
2023-05-02T19:05:15.379Z,3.20
2023-05-02T19:07:42.573Z,2.90
2023-05-02T19:10:11.553Z,2.75
2023-05-02T19:12:38.665Z,2.80
2023-05-02T19:15:06.899Z,3.03
2023-05-02T19:17:33.888Z,2.80
2023-05-02T19:20:00.625Z,2.70
2023-05-02T19:22:27.929Z,2.75
2023-05-02T19:24:54.743Z,3.15
2023-05-02T19:27:21.470Z,3.08
2023-05-02T19:29:48.389Z,3.53
2023-05-02T19:32:15.301Z,3.00
2023-05-02T19:34:42.349Z,2.97
2023-05-02T19:37:09.103Z,3.00
2023-05-02T19:39:35.919Z,3.10
2023-05-02T19:42:03.479Z,2.97
2023-05-02T19:44:30.465Z,2.88
2023-05-02T19:46:57.143Z,2.97
2023-05-02T19:49:23.935Z,2.65
2023-05-02T19:51:50.744Z,2.70
2023-05-02T19:54:17.399Z,2.63
2023-05-02T19:56:44.321Z,2.80
2023-05-02T19:59:11.094Z,2.90
2023-05-02T20:01:37.967Z,3.15
2023-05-02T20:04:04.854Z,5.03
2023-05-02T20:06:32.511Z,3.72
2023-05-02T20:08:59.400Z,3.50
2023-05-02T20:11:26.438Z,3.35
2023-05-02T20:13:54.581Z,2.75
2023-05-02T20:16:21.501Z,2.88
2023-05-02T20:18:48.374Z,2.95
2023-05-02T20:21:15.309Z,3.35
2023-05-02T20:23:43.741Z,3.70
2023-05-02T20:26:10.756Z,3.92
2023-05-02T20:28:38.123Z,3.13
2023-05-02T20:31:05.098Z,3.05
2023-05-02T20:33:43.947Z,3.38
2023-05-02T20:36:12.904Z,3.67
2023-05-02T20:38:42.743Z,3.85
2023-05-02T20:41:12.942Z,31.90
2023-05-02T20:43:45.405Z,11.77
2023-05-02T20:46:13.722Z,6.30
2023-05-02T20:48:40.604Z,4.43
2023-05-02T20:51:08.896Z,7.15
2023-05-02T20:53:36.872Z,7.15
2023-05-02T20:56:03.732Z,5.85
2023-05-02T20:58:30.460Z,5.72
2023-05-02T21:00:57.374Z,4.75
2023-05-02T21:03:24.177Z,3.05
2023-05-02T21:05:52.713Z,2.90
2023-05-02T21:08:19.992Z,3.20
2023-05-02T21:10:47.110Z,3.05
2023-05-02T21:13:14.018Z,3.38
2023-05-02T21:15:41.107Z,3.30
2023-05-02T21:18:07.919Z,3.40
2023-05-02T21:20:36.218Z,3.45
2023-05-02T21:23:02.965Z,3.28
2023-05-02T21:25:29.926Z,2.92
2023-05-02T21:27:56.785Z,3.35
2023-05-02T21:30:24.695Z,3.30
2023-05-02T21:32:51.609Z,3.15
2023-05-02T21:35:18.388Z,3.20
2023-05-02T21:37:45.137Z,3.33
2023-05-02T21:40:12.545Z,3.47
2023-05-02T21:42:39.326Z,3.25
2023-05-02T21:45:06.968Z,2.95
2023-05-02T21:47:33.857Z,4.10
2023-05-02T21:50:00.849Z,4.93
2023-05-02T21:52:28.410Z,4.85
2023-05-02T21:54:55.112Z,4.60
2023-05-02T21:57:21.865Z,4.13
2023-05-02T21:59:48.597Z,3.85
2023-05-02T22:02:15.390Z,3.40
2023-05-02T22:04:42.159Z,3.50
2023-05-02T22:07:08.889Z,3.40
2023-05-02T22:09:35.656Z,3.15
2023-05-02T22:12:03.237Z,3.88
2023-05-02T22:14:37.623Z,3.65
2023-05-02T22:17:10.808Z,3.42
2023-05-02T22:19:37.895Z,3.80
2023-05-02T22:22:05.644Z,4.38
2023-05-02T22:24:32.378Z,3.75
2023-05-02T22:26:59.181Z,3.30
2023-05-02T22:29:25.961Z,3.75
2023-05-02T22:31:52.755Z,3.90
2023-05-02T22:34:19.641Z,4.22
2023-05-02T22:36:46.565Z,3.67
2023-05-02T22:39:15.892Z,3.72
2023-05-02T22:41:43.180Z,3.90
2023-05-02T22:44:10.322Z,3.97
2023-05-02T22:46:38.393Z,3.95
2023-05-02T22:49:10.596Z,3.90
2023-05-02T22:51:41.792Z,3.85
2023-05-02T22:54:08.809Z,3.75
2023-05-02T22:56:35.682Z,3.65
2023-05-02T22:59:02.644Z,3.70
2023-05-02T23:01:29.536Z,4.00
2023-05-02T23:03:56.601Z,4.03
2023-05-02T23:06:23.594Z,3.95
2023-05-02T23:08:50.401Z,3.97
2023-05-02T23:11:17.129Z,4.05
2023-05-02T23:13:43.801Z,3.83
2023-05-02T23:16:10.646Z,3.75
2023-05-02T23:18:37.463Z,3.83
2023-05-02T23:21:04.674Z,4.00
2023-05-02T23:23:31.523Z,3.42
2023-05-02T23:25:58.475Z,3.78
2023-05-02T23:28:26.327Z,3.72
2023-05-02T23:30:53.933Z,3.92
2023-05-02T23:33:20.844Z,4.40
2023-05-02T23:35:48.048Z,3.58
2023-05-02T23:38:14.868Z,4.00
2023-05-02T23:40:41.589Z,3.95
2023-05-02T23:43:09.047Z,3.80
2023-05-02T23:45:35.915Z,3.72
2023-05-02T23:48:02.783Z,4.00
2023-05-02T23:50:29.565Z,4.22
2023-05-02T23:52:56.313Z,3.88
2023-05-02T23:55:23.048Z,4.03
2023-05-02T23:57:49.857Z,4.55
